Time;durP1;ratioP1;P1;durP2;ratioP2;P2;SDS_P1;SDS_P2;PMS_P1;PMS_P2;Temp;Humidity;BMP_temperature;BMP_pressure;BME280_temperature;BME280_humidity;BME280_pressure;Samples;Min_cycle;Max_cycle;Signal;HPM_P1;HPM_P2
2023/04/21 00:01:07;;;;;;;22.63;20.23;;;7.00;99.90;;;;;;6206662;23;20248;-90
2023/04/21 00:03:36;;;;;;;22.43;20.13;;;7.00;99.90;;;;;;6206727;23;20158;-89
2023/04/21 00:06:05;;;;;;;22.43;20.10;;;7.00;99.90;;;;;;6206657;23;20162;-89
2023/04/21 00:08:31;;;;;;;23.40;20.60;;;6.90;1.00;;;;;;6206110;23;20170;-90
2023/04/21 00:10:56;;;;;;;21.13;19.03;;;6.90;91.10;;;;;;6207754;23;20180;-90
2023/04/21 00:13:22;;;;;;;22.53;20.20;;;7.00;1.00;;;;;;6206327;23;21012;-91
2023/04/21 00:15:48;;;;;;;24.17;20.87;;;6.90;1.00;;;;;;6208029;23;20248;-90
2023/04/21 00:18:14;;;;;;;22.30;20.10;;;6.80;1.00;;;;;;6205999;23;20161;-90
2023/04/21 00:20:40;;;;;;;21.70;19.40;;;6.70;99.90;;;;;;6205609;23;20213;-89
2023/04/21 00:23:06;;;;;;;22.07;19.80;;;6.70;99.90;;;;;;6206383;23;20586;-89
2023/04/21 00:25:31;;;;;;;21.27;19.00;;;6.70;1.00;;;;;;6206443;23;20163;-89
2023/04/21 00:27:57;;;;;;;21.60;17.77;;;6.70;83.30;;;;;;6206257;23;20162;-89
2023/04/21 00:30:22;;;;;;;20.07;17.93;;;6.70;99.90;;;;;;6206046;23;20252;-89
2023/04/21 00:32:48;;;;;;;19.83;17.17;;;6.80;1.00;;;;;;6206532;23;20245;-90
2023/04/21 00:35:13;;;;;;;19.20;16.80;;;6.80;99.90;;;;;;6206695;23;20186;-90
2023/04/21 00:37:40;;;;;;;17.63;15.83;;;6.90;1.00;;;;;;6208325;23;20158;-90
2023/04/21 00:40:06;;;;;;;17.50;15.67;;;7.00;1.00;;;;;;6208021;23;20216;-89
2023/04/21 00:42:32;;;;;;;17.53;15.10;;;7.10;99.90;;;;;;6208029;23;20665;-89
2023/04/21 00:44:57;;;;;;;16.47;14.77;;;7.30;99.90;;;;;;6208039;23;20166;-88
2023/04/21 00:47:24;;;;;;;17.37;15.13;;;7.40;99.90;;;;;;6208191;23;20166;-89
2023/04/21 00:49:50;;;;;;;15.87;13.50;;;7.40;1.00;;;;;;6207710;23;20178;-89
2023/04/21 00:52:17;;;;;;;16.50;13.77;;;7.40;99.90;;;;;;6208070;23;20178;-89
2023/04/21 00:54:43;;;;;;;17.37;13.70;;;7.40;1.00;;;;;;6209794;23;20217;-89
2023/04/21 00:57:10;;;;;;;15.43;13.87;;;7.30;99.90;;;;;;6208018;23;20158;-90
2023/04/21 00:59:35;;;;;;;16.27;13.33;;;7.30;1.00;;;;;;6207917;23;20502;-89
2023/04/21 01:02:01;;;;;;;18.87;13.73;;;7.40;97.20;;;;;;6207683;23;20182;-88
2023/04/21 01:04:28;;;;;;;18.43;13.37;;;7.50;1.00;;;;;;6208103;23;20197;-88
2023/04/21 01:06:53;;;;;;;13.80;12.17;;;7.60;1.00;;;;;;6208234;23;20173;-89
2023/04/21 01:09:20;;;;;;;13.47;12.10;;;7.50;99.90;;;;;;6207291;23;20526;-89
2023/04/21 01:12:02;;;;;;;15.27;12.47;;;7.40;1.00;;;;;;6208064;23;20233;-89
2023/04/21 01:14:28;;;;;;;13.87;12.47;;;7.30;1.00;;;;;;6208159;23;21001;-89
2023/04/21 01:16:53;;;;;;;13.63;12.20;;;7.20;1.00;;;;;;6209774;23;20150;-89
2023/04/21 01:19:19;;;;;;;15.03;11.87;;;7.10;50.60;;;;;;6209027;23;20168;-89
2023/04/21 01:21:45;;;;;;;13.47;12.07;;;7.10;99.90;;;;;;6207991;23;20178;-89
2023/04/21 01:24:11;;;;;;;14.63;13.07;;;7.00;1.00;;;;;;6207896;23;20185;-89
2023/04/21 01:26:37;;;;;;;13.53;12.13;;;7.30;1.00;;;;;;6207800;23;20162;-88
2023/04/21 01:29:03;;;;;;;13.50;12.00;;;6.90;1.00;;;;;;6206888;23;20193;-89
2023/04/21 01:31:31;;;;;;;14.40;12.40;;;6.90;1.00;;;;;;6207532;23;20185;-89
2023/04/21 01:34:01;;;;;;;14.30;12.40;;;6.90;1.00;;;;;;6212842;23;20609;-89
2023/04/21 01:36:27;;;;;;;17.07;13.13;;;7.00;1.00;;;;;;6212740;23;20701;-89
2023/04/21 01:38:53;;;;;;;17.60;13.03;;;6.90;11.40;;;;;;6212232;23;20153;-89
2023/04/21 01:41:18;;;;;;;14.37;12.87;;;6.90;1.00;;;;;;6212676;23;20185;-90
2023/04/21 01:43:44;;;;;;;14.53;12.73;;;7.00;1.00;;;;;;6212525;23;20157;-88
2023/04/21 01:46:09;;;;;;;14.33;12.63;;;6.90;1.00;;;;;;6212917;23;20204;-89
2023/04/21 01:48:35;;;;;;;14.17;12.67;;;7.00;1.00;;;;;;6212312;23;20169;-90
2023/04/21 01:51:01;;;;;;;15.87;13.47;;;7.00;1.00;;;;;;6212593;23;20204;-89
2023/04/21 01:53:27;;;;;;;14.73;13.17;;;7.00;1.00;;;;;;6212862;23;20590;-89
2023/04/21 01:55:52;;;;;;;15.90;13.60;;;7.10;1.00;;;;;;6212687;23;20232;-89
2023/04/21 01:58:18;;;;;;;14.27;12.87;;;7.10;1.00;;;;;;6239440;23;20173;-89
2023/04/21 02:00:44;;;;;;;14.30;12.83;;;7.10;99.90;;;;;;6211863;23;20758;-89
2023/04/21 02:03:09;;;;;;;14.87;12.40;;;7.00;99.90;;;;;;6213084;23;20154;-89
2023/04/21 02:05:35;;;;;;;14.47;12.77;;;7.10;1.00;;;;;;6212504;23;20228;-89
2023/04/21 02:08:00;;;;;;;16.77;12.77;;;7.10;1.00;;;;;;6212583;23;20154;-89
2023/04/21 02:10:26;;;;;;;14.87;12.97;;;7.10;99.90;;;;;;6212282;22;20193;-89
2023/04/21 02:12:51;;;;;;;16.07;13.27;;;7.10;99.90;;;;;;6212714;23;20169;-89
2023/04/21 02:15:17;;;;;;;16.33;12.80;;;7.20;99.90;;;;;;6212682;23;20154;-89
2023/04/21 02:17:43;;;;;;;15.70;12.97;;;7.30;1.00;;;;;;6212620;23;20190;-89
2023/04/21 02:20:11;;;;;;;17.77;12.57;;;7.50;90.50;;;;;;6212937;23;20219;-89
2023/04/21 02:22:37;;;;;;;13.57;11.33;;;7.70;99.90;;;;;;6239263;22;20170;-89
2023/04/21 02:25:03;;;;;;;14.20;12.53;;;7.70;99.90;;;;;;6212836;23;20160;-89
2023/04/21 02:27:28;;;;;;;15.40;12.37;;;7.50;56.10;;;;;;6212522;23;20161;-89
2023/04/21 02:29:54;;;;;;;14.27;11.60;;;7.40;76.50;;;;;;6212379;23;20615;-89
2023/04/21 02:32:19;;;;;;;16.10;12.43;;;6.80;99.90;;;;;;6212361;23;20671;-89
2023/04/21 02:34:45;;;;;;;12.77;11.47;;;7.30;1.00;;;;;;6212202;23;20208;-89
2023/04/21 02:37:11;;;;;;;15.43;12.20;;;7.30;99.90;;;;;;6212310;23;20165;-89
2023/04/21 02:39:36;;;;;;;15.60;12.63;;;7.40;1.00;;;;;;6212144;23;20938;-90
2023/04/21 02:42:02;;;;;;;12.90;11.63;;;7.40;99.90;;;;;;6239289;22;20193;-89
2023/04/21 02:44:28;;;;;;;17.83;12.40;;;7.30;99.90;;;;;;6212175;23;20166;-89
2023/04/21 02:46:53;;;;;;;13.20;11.77;;;7.30;99.90;;;;;;6239309;23;20203;-89
2023/04/21 02:49:19;;;;;;;19.10;12.77;;;7.30;1.00;;;;;;6211959;23;20185;-89
2023/04/21 02:51:44;;;;;;;14.93;12.33;;;7.30;1.00;;;;;;6212244;23;20181;-90
2023/04/21 02:54:10;;;;;;;13.30;11.47;;;7.40;1.00;;;;;;6212216;23;20188;-89
2023/04/21 02:56:36;;;;;;;15.00;11.60;;;7.40;1.00;;;;;;6212556;23;20164;-89
2023/04/21 02:59:01;;;;;;;13.53;11.73;;;7.40;1.00;;;;;;6211680;23;20240;-90
2023/04/21 03:01:27;;;;;;;18.13;12.27;;;7.50;1.00;;;;;;6212311;23;20654;-90
2023/04/21 03:03:52;;;;;;;17.20;11.90;;;7.60;1.00;;;;;;6212057;23;20198;-90
2023/04/21 03:06:18;;;;;;;13.57;11.43;;;8.30;1.00;;;;;;6238898;23;20494;-90
2023/04/21 03:08:43;;;;;;;16.30;11.57;;;7.90;1.00;;;;;;6211747;23;20187;-90
2023/04/21 03:11:09;;;;;;;14.27;12.03;;;7.90;99.90;;;;;;6212107;23;20228;-89
2023/04/21 03:13:34;;;;;;;14.60;11.43;;;7.70;1.00;;;;;;6212008;23;20168;-89
2023/04/21 03:16:00;;;;;;;12.63;10.37;;;7.60;99.90;;;;;;6238734;23;20235;-90
2023/04/21 03:18:26;;;;;;;14.47;10.73;;;7.50;1.00;;;;;;6211657;23;20165;-90
2023/04/21 03:20:57;;;;;;;12.87;10.43;;;7.30;99.90;;;;;;6211741;23;20173;-90
2023/04/21 03:23:23;;;;;;;13.27;10.90;;;7.30;99.90;;;;;;6211898;23;20199;-91
2023/04/21 03:25:49;;;;;;;13.73;11.13;;;7.20;1.00;;;;;;6212031;23;20154;-91
2023/04/21 03:28:15;;;;;;;12.60;11.30;;;7.20;99.90;;;;;;6211094;23;20161;-90
2023/04/21 03:30:41;;;;;;;12.17;11.03;;;7.10;1.00;;;;;;6211619;22;20197;-90
2023/04/21 03:33:06;;;;;;;14.73;11.20;;;7.20;1.00;;;;;;6212073;23;20193;-90
2023/04/21 03:35:33;;;;;;;13.83;10.93;;;7.20;1.00;;;;;;6211673;23;20203;-89
2023/04/21 03:37:58;;;;;;;12.43;10.73;;;7.10;1.00;;;;;;6211778;23;20158;-90
2023/04/21 03:40:24;;;;;;;13.20;10.73;;;7.00;1.00;;;;;;6211579;22;20551;-89
2023/04/21 03:42:50;;;;;;;12.90;10.70;;;7.00;1.00;;;;;;6212281;23;20162;-90
2023/04/21 03:45:18;;;;;;;11.93;10.73;;;6.90;1.00;;;;;;6212149;23;20161;-90
2023/04/21 03:47:44;;;;;;;13.07;10.77;;;6.90;1.00;;;;;;6212842;23;20258;-89
2023/04/21 03:50:09;;;;;;;13.97;10.83;;;7.00;1.00;;;;;;6212616;23;20189;-90
2023/04/21 03:52:35;;;;;;;14.07;11.57;;;6.90;99.90;;;;;;6212401;23;20622;-90
2023/04/21 03:55:00;;;;;;;14.67;11.17;;;6.90;1.00;;;;;;6212396;23;20162;-90
2023/04/21 03:57:26;;;;;;;15.83;11.83;;;6.90;1.00;;;;;;6212428;23;20164;-90
2023/04/21 03:59:52;;;;;;;14.17;11.83;;;6.80;1.00;;;;;;6212377;23;20169;-90
2023/04/21 04:02:17;;;;;;;16.87;12.60;;;6.90;1.00;;;;;;6212734;23;20997;-90
2023/04/21 04:04:43;;;;;;;16.33;12.47;;;6.90;99.60;;;;;;6212520;23;20192;-90
2023/04/21 04:07:08;;;;;;;14.50;11.23;;;6.90;1.00;;;;;;6212020;23;20161;-89
2023/04/21 04:09:34;;;;;;;17.33;11.87;;;7.00;1.00;;;;;;6212730;23;20213;-90
2023/04/21 04:12:02;;;;;;;16.53;11.73;;;6.90;40.40;;;;;;6214558;23;20641;-89
2023/04/21 04:14:27;;;;;;;12.47;10.97;;;7.00;1.00;;;;;;6214123;23;20162;-90
2023/04/21 04:16:54;;;;;;;15.43;11.10;;;7.00;1.00;;;;;;6214123;23;20196;-90
2023/04/21 04:19:20;;;;;;;11.97;10.33;;;7.10;99.90;;;;;;6213839;23;20153;-90
2023/04/21 04:21:45;;;;;;;12.07;10.83;;;7.10;1.00;;;;;;6213929;23;20187;-90
2023/04/21 04:24:12;;;;;;;12.80;10.43;;;7.00;1.00;;;;;;6214359;23;20492;-89
2023/04/21 04:26:48;;;;;;;15.33;11.53;;;7.00;99.90;;;;;;6215045;23;20180;-90
2023/04/21 04:29:15;;;;;;;14.23;11.83;;;6.80;90.70;;;;;;6214926;23;20838;-90
2023/04/21 04:31:40;;;;;;;11.90;10.70;;;6.80;80.10;;;;;;6214595;23;20519;-90
2023/04/21 04:34:08;;;;;;;13.37;11.53;;;6.90;1.00;;;;;;6214654;23;20201;-90
2023/04/21 04:36:34;;;;;;;15.83;11.37;;;6.80;1.00;;;;;;6214489;23;20157;-90
2023/04/21 04:38:59;;;;;;;12.40;10.63;;;6.70;1.00;;;;;;6214586;23;20172;-90
2023/04/21 04:41:25;;;;;;;13.93;10.37;;;6.70;99.90;;;;;;6214675;23;20268;-90
2023/04/21 04:43:51;;;;;;;16.67;11.17;;;6.70;99.90;;;;;;6214354;23;20170;-89
2023/04/21 04:46:19;;;;;;;12.27;10.43;;;6.70;1.00;;;;;;6214730;23;20813;-91
2023/04/21 04:48:45;;;;;;;11.87;10.60;;;6.70;1.00;;;;;;6214160;23;20190;-89
2023/04/21 04:51:11;;;;;;;13.97;10.57;;;6.70;1.00;;;;;;6214849;23;20183;-90
2023/04/21 04:53:36;;;;;;;12.17;10.43;;;7.60;1.00;;;;;;6214803;23;20158;-90
2023/04/21 04:56:02;;;;;;;11.93;10.40;;;6.80;1.00;;;;;;6214469;23;20207;-91
2023/04/21 04:58:27;;;;;;;12.40;10.87;;;6.90;1.00;;;;;;6217708;23;20234;-90
2023/04/21 05:00:53;;;;;;;13.60;10.13;;;7.10;99.90;;;;;;6214337;23;20180;-90
2023/04/21 05:03:19;;;;;;;11.03;9.73;;;7.40;1.00;;;;;;6214604;23;20164;-91
2023/04/21 05:05:45;;;;;;;15.13;11.00;;;7.30;1.00;;;;;;6214283;23;20157;-91
2023/04/21 05:08:10;;;;;;;11.93;9.70;;;7.40;1.00;;;;;;6214509;23;20157;-91
2023/04/21 05:10:36;;;;;;;14.50;9.33;;;7.60;34.10;;;;;;6214053;22;20192;-90
2023/04/21 05:13:01;;;;;;;10.87;9.67;;;7.60;1.00;;;;;;6215182;23;20161;-90
2023/04/21 05:15:27;;;;;;;11.50;10.00;;;7.60;1.00;;;;;;6214770;23;20232;-91
2023/04/21 05:17:52;;;;;;;11.37;9.57;;;7.60;95.50;;;;;;6214971;23;20158;-90
2023/04/21 05:20:18;;;;;;;13.53;9.33;;;7.70;99.90;;;;;;6214535;23;20687;-90
2023/04/21 05:22:44;;;;;;;11.50;10.10;;;7.80;99.90;;;;;;6214410;23;20186;-90
2023/04/21 05:25:13;;;;;;;11.63;9.17;;;7.90;99.90;;;;;;6241627;23;20158;-90
2023/04/21 05:27:39;;;;;;;11.47;9.77;;;8.00;1.00;;;;;;6215123;23;20162;-89
2023/04/21 05:30:05;;;;;;;12.27;8.93;;;8.40;1.00;;;;;;6214916;23;20239;-90
2023/04/21 05:32:31;;;;;;;14.27;9.10;;;8.30;1.00;;;;;;6214898;23;20178;-90
2023/04/21 05:34:58;;;;;;;12.10;8.90;;;8.30;99.90;;;;;;6214880;23;20248;-90
2023/04/21 05:37:24;;;;;;;13.00;9.07;;;8.40;1.00;;;;;;6215265;23;20280;-90
2023/04/21 05:39:50;;;;;;;13.37;8.70;;;8.40;99.90;;;;;;6214593;23;20165;-91
2023/04/21 05:42:17;;;;;;;11.20;9.00;;;8.50;99.90;;;;;;6214806;23;20650;-90
2023/04/21 05:44:43;;;;;;;10.37;9.07;;;8.60;99.90;;;;;;6215835;23;20157;-90
2023/04/21 05:47:08;;;;;;;11.43;8.57;;;8.70;1.00;;;;;;6214949;23;20215;-91
2023/04/21 05:49:34;;;;;;;11.57;9.00;;;8.80;1.00;;;;;;6215394;23;20185;-90
2023/04/21 05:51:59;;;;;;;13.30;9.10;;;8.90;96.70;;;;;;6215550;23;20177;-90
2023/04/21 05:54:25;;;;;;;9.33;8.43;;;9.10;1.00;;;;;;6215495;23;20624;-90
2023/04/21 05:56:51;;;;;;;10.93;8.47;;;9.20;1.00;;;;;;6215282;23;20161;-90
2023/04/21 05:59:16;;;;;;;12.83;8.93;;;9.10;1.00;;;;;;6215092;23;20166;-91
2023/04/21 06:01:43;;;;;;;11.60;9.00;;;9.30;1.00;;;;;;6215110;23;20514;-91
2023/04/21 06:04:09;;;;;;;11.27;9.07;;;10.20;1.00;;;;;;6215155;23;20154;-90
2023/04/21 06:06:35;;;;;;;11.67;9.50;;;9.30;1.00;;;;;;6215550;23;20165;-91
2023/04/21 06:09:01;;;;;;;15.27;9.00;;;9.40;1.00;;;;;;6241803;23;20923;-91
2023/04/21 06:11:26;;;;;;;13.50;9.50;;;9.30;1.00;;;;;;6215712;23;20173;-91
2023/04/21 06:13:53;;;;;;;11.57;9.50;;;9.50;1.00;;;;;;6216153;23;20477;-91
2023/04/21 06:16:19;;;;;;;8.47;7.33;;;9.70;1.00;;;;;;6216833;23;20208;-92
2023/04/21 06:18:45;;;;;;;12.77;7.73;;;10.40;99.90;;;;;;6216591;23;20158;-91
2023/04/21 06:21:10;;;;;;;9.70;7.25;;;12.40;85.00;;;;;;6216517;23;20285;-91
2023/04/21 06:23:36;;;;;;;9.93;6.32;;;13.90;1.00;;;;;;6217455;23;20240;-92
2023/04/21 06:26:05;;;;;;;11.43;6.28;;;14.80;1.00;;;;;;6217501;23;20157;-92
2023/04/21 06:28:43;;;;;;;8.50;6.30;;;15.40;1.00;;;;;;6216743;23;20157;-92
2023/04/21 06:31:17;;;;;;;8.82;6.60;;;16.50;1.00;;;;;;6218713;23;20177;-92
2023/04/21 06:33:43;;;;;;;9.30;5.85;;;17.30;1.00;;;;;;6223888;23;20168;-90
2023/04/21 06:36:09;;;;;;;10.50;5.70;;;17.60;1.00;;;;;;6232718;23;20179;-91
2023/04/21 06:38:35;;;;;;;9.55;5.30;;;17.90;1.00;;;;;;6218109;23;20418;-91
2023/04/21 06:41:01;;;;;;;10.02;5.80;;;17.30;1.00;;;;;;6216958;23;20694;-90
2023/04/21 06:43:27;;;;;;;9.07;5.78;;;17.90;1.00;;;;;;6217067;23;20223;-91
2023/04/21 06:45:52;;;;;;;9.60;6.43;;;18.50;1.00;;;;;;6244258;23;20161;-90
2023/04/21 06:48:18;;;;;;;12.35;6.15;;;18.40;1.00;;;;;;6217025;23;20237;-91
2023/04/21 06:50:45;;;;;;;9.57;6.15;;;18.90;1.00;;;;;;6218559;22;20618;-91
2023/04/21 06:53:11;;;;;;;9.63;6.25;;;18.50;1.00;;;;;;6218858;23;20167;-91
2023/04/21 06:59:12;;;;;;;10.00;6.90;;;17.80;1.00;;;;;;6245763;23;20600;-90
2023/04/21 07:01:37;;;;;;;10.07;5.97;;;17.00;1.00;;;;;;6193515;23;20213;-91
2023/04/21 07:04:04;;;;;;;9.38;6.00;;;17.10;1.00;;;;;;6222469;23;20160;-90
2023/04/21 07:06:30;;;;;;;10.93;6.55;;;17.70;1.00;;;;;;6226795;23;20502;-90
2023/04/21 07:08:56;;;;;;;10.68;6.85;;;17.60;1.00;;;;;;6231224;23;20185;-90
2023/04/21 07:11:22;;;;;;;8.63;6.63;;;16.20;1.00;;;;;;6237854;23;20331;-89
2023/04/21 07:13:47;;;;;;;12.05;7.07;;;14.90;1.00;;;;;;6238609;23;20154;-90
2023/04/21 07:16:13;;;;;;;11.23;7.57;;;14.00;1.00;;;;;;6216284;23;20158;-90
2023/04/21 07:18:40;;;;;;;15.25;7.70;;;13.60;1.00;;;;;;6219194;23;20619;-89
2023/04/21 07:21:06;;;;;;;11.98;7.30;;;13.00;1.00;;;;;;6241594;23;20162;-90
2023/04/21 07:23:32;;;;;;;15.35;7.63;;;12.70;1.00;;;;;;6243319;23;20188;-90
2023/04/21 07:25:58;;;;;;;10.63;7.40;;;12.60;1.00;;;;;;6243810;23;20141;-90
2023/04/21 07:28:24;;;;;;;15.77;8.43;;;12.50;1.00;;;;;;6269459;22;20197;-89
2023/04/21 07:30:49;;;;;;;11.10;7.97;;;12.80;1.00;;;;;;6217089;23;20185;-90
2023/04/21 07:36:37;;;;;;;14.48;7.90;;;13.50;1.00;;;;;;6252616;22;20239;-89
2023/04/21 07:39:03;;;;;;;12.20;8.32;;;13.30;1.00;;;;;;6231212;23;20146;-89
2023/04/21 07:41:29;;;;;;;14.77;8.15;;;13.00;1.00;;;;;;6229768;23;20242;-88
2023/04/21 07:43:54;;;;;;;11.35;7.32;;;13.00;1.00;;;;;;6213003;23;20494;-89
2023/04/21 07:47:13;;;;;;;13.90;8.07;;;12.80;1.00;;;;;;6207938;23;20165;-89
2023/04/21 07:49:59;;;;;;;8.98;7.10;;;12.90;1.00;;;;;;6208976;23;20193;-90
2023/04/21 07:56:00;;;;;;;12.60;8.23;;;12.90;1.00;;;;;;6203088;23;20236;-90
2023/04/21 07:58:26;;;;;;;10.07;7.70;;;12.90;1.00;;;;;;6207304;23;20158;-88
2023/04/21 08:00:51;;;;;;;11.60;7.45;;;12.90;1.00;;;;;;6202586;23;20264;-87
2023/04/21 08:03:17;;;;;;;8.23;7.40;;;13.00;1.00;;;;;;6205562;23;20158;-88
2023/04/21 08:05:43;;;;;;;14.35;8.38;;;13.30;1.00;;;;;;6205398;23;20582;-88
2023/04/21 08:08:08;;;;;;;8.77;7.40;;;13.20;1.00;;;;;;6205358;23;20161;-87
2023/04/21 08:10:34;;;;;;;11.32;7.60;;;13.40;1.00;;;;;;6204596;23;20188;-89
2023/04/21 08:13:00;;;;;;;13.30;8.23;;;13.40;1.00;;;;;;6207081;23;20479;-87
2023/04/21 08:15:25;;;;;;;12.48;7.95;;;13.50;1.00;;;;;;6204903;23;20154;-89
2023/04/21 08:17:51;;;;;;;12.35;8.38;;;13.60;1.00;;;;;;6202046;23;20166;-86
2023/04/21 08:20:17;;;;;;;12.57;7.75;;;14.40;1.00;;;;;;6206181;23;20186;-88
2023/04/21 08:22:42;;;;;;;15.65;8.27;;;13.50;1.00;;;;;;6204938;23;20708;-87
2023/04/21 08:25:08;;;;;;;11.57;8.07;;;14.30;1.00;;;;;;6205171;23;20200;-88
2023/04/21 08:27:36;;;;;;;14.02;8.38;;;13.80;1.00;;;;;;6205790;23;20162;-88
2023/04/21 08:30:01;;;;;;;12.82;8.30;;;14.00;1.00;;;;;;6203802;23;20693;-87
2023/04/21 08:32:27;;;;;;;12.05;8.10;;;14.00;1.00;;;;;;6205166;23;20183;-87
2023/04/21 08:34:53;;;;;;;10.98;7.90;;;14.50;1.00;;;;;;6205938;23;20162;-88
2023/04/21 08:37:20;;;;;;;13.43;7.63;;;14.10;1.00;;;;;;6207603;23;20198;-91
2023/04/21 08:39:46;;;;;;;10.80;7.65;;;14.30;1.00;;;;;;6210630;23;20166;-91
2023/04/21 08:42:16;;;;;;;10.80;7.70;;;14.60;1.00;;;;;;6213902;23;20262;-90
2023/04/21 08:44:45;;;;;;;14.05;8.40;;;14.70;1.00;;;;;;6234232;23;20173;-90
2023/04/21 08:47:12;;;;;;;12.50;7.50;;;14.90;1.00;;;;;;6229336;23;20158;-92
2023/04/21 08:49:39;;;;;;;10.82;7.25;;;15.80;1.00;;;;;;6214176;23;20190;-92
2023/04/21 08:55:54;;;;;;;13.77;7.65;;;15.10;1.00;;;;;;6219806;23;20170;-92
2023/04/21 08:58:21;;;;;;;10.75;8.05;;;15.30;1.00;;;;;;6187073;23;20351;-88
2023/04/21 09:00:50;;;;;;;9.02;8.13;;;15.80;1.00;;;;;;6209834;23;20209;-90
2023/04/21 09:03:26;;;;;;;9.02;7.63;;;15.60;1.00;;;;;;6210194;23;20175;-93
2023/04/21 09:06:01;;;;;;;12.55;8.15;;;15.50;1.00;;;;;;6209979;23;20172;-91
2023/04/21 09:08:29;;;;;;;10.52;8.18;;;16.30;1.00;;;;;;6213118;23;20200;-92
2023/04/21 09:10:55;;;;;;;11.75;7.90;;;16.40;1.00;;;;;;6213408;23;20451;-91
2023/04/21 09:13:32;;;;;;;15.38;7.93;;;16.20;1.00;;;;;;6224930;23;20150;-88
2023/04/21 09:16:01;;;;;;;10.68;7.57;;;16.40;1.00;;;;;;6233953;23;20134;-89
2023/04/21 09:18:38;;;;;;;8.68;7.60;;;15.90;1.00;;;;;;6234531;23;20165;-93
2023/04/21 09:21:27;;;;;;;11.82;7.60;;;15.90;1.00;;;;;;6234676;23;20437;-92
2023/04/21 09:23:54;;;;;;;8.98;7.68;;;16.00;1.00;;;;;;6228820;23;20166;-89
2023/04/21 09:26:23;;;;;;;10.00;7.10;;;16.60;1.00;;;;;;6231432;23;20162;-90
2023/04/21 09:28:54;;;;;;;10.98;8.40;;;16.10;1.00;;;;;;6229631;23;20427;-88
2023/04/21 09:31:27;;;;;;;15.85;8.85;;;16.40;1.00;;;;;;6230210;23;20166;-89
2023/04/21 09:33:55;;;;;;;11.55;7.95;;;16.70;1.00;;;;;;6228414;23;20172;-92
2023/04/21 09:36:25;;;;;;;9.30;7.53;;;16.30;1.00;;;;;;6229201;23;20181;-89
2023/04/21 09:38:53;;;;;;;11.18;7.22;;;16.00;1.00;;;;;;6208969;23;20256;-91
2023/04/21 09:42:30;;;;;;;9.80;6.57;;;16.50;1.00;;;;;;6221866;23;20189;-90
2023/04/21 09:45:04;;;;;;;13.25;7.15;;;16.60;1.00;;;;;;6200029;23;20273;-91
2023/04/21 09:47:38;;;;;;;10.55;7.50;;;16.70;1.00;;;;;;6179513;23;20464;-92
2023/04/21 09:50:07;;;;;;;10.82;7.07;;;16.70;1.00;;;;;;6206495;23;20174;-92
2023/04/21 09:52:33;;;;;;;10.38;6.95;;;16.90;1.00;;;;;;6205246;23;20181;-91
2023/04/21 09:55:06;;;;;;;12.25;6.80;;;16.90;1.00;;;;;;6207735;23;20150;-91
2023/04/21 09:57:36;;;;;;;10.05;7.50;;;16.80;1.00;;;;;;6203847;23;20150;-90
2023/04/21 10:00:08;;;;;;;11.88;6.80;;;16.90;1.00;;;;;;6204943;23;20173;-91
2023/04/21 10:02:35;;;;;;;9.00;6.55;;;17.00;1.00;;;;;;6205626;23;20637;-91
2023/04/21 10:05:05;;;;;;;11.57;7.13;;;17.10;1.00;;;;;;6205195;23;20710;-91
2023/04/21 10:07:30;;;;;;;10.02;7.43;;;17.10;1.00;;;;;;6204684;23;20161;-90
2023/04/21 10:09:58;;;;;;;11.13;7.40;;;17.20;1.00;;;;;;6205747;23;20185;-90
2023/04/21 10:12:25;;;;;;;11.88;6.80;;;17.50;1.00;;;;;;6205431;23;20182;-86
2023/04/21 10:14:55;;;;;;;11.88;6.75;;;17.00;1.00;;;;;;6205253;23;20189;-89
2023/04/21 10:17:25;;;;;;;8.00;6.65;;;17.10;1.00;;;;;;6206238;23;20661;-92
2023/04/21 10:19:57;;;;;;;8.20;6.90;;;17.20;1.00;;;;;;6206947;23;20182;-91
2023/04/21 10:22:44;;;;;;;9.15;6.47;;;17.30;1.00;;;;;;6181857;23;20716;-90
2023/04/21 10:25:10;;;;;;;8.45;6.50;;;17.40;1.00;;;;;;6204697;23;20158;-90
2023/04/21 10:27:40;;;;;;;10.60;7.38;;;17.50;1.00;;;;;;6205241;23;20151;-90
2023/04/21 10:30:24;;;;;;;12.60;6.68;;;17.50;1.00;;;;;;6204285;23;20178;-89
2023/04/21 10:33:02;;;;;;;7.25;6.50;;;17.50;1.00;;;;;;6205084;23;20234;-91
2023/04/21 10:35:58;;;;;;;10.85;6.50;;;17.10;1.00;;;;;;6205419;23;20151;-92
2023/04/21 10:38:56;;;;;;;7.60;5.90;;;17.40;1.00;;;;;;6176538;23;20189;-89
2023/04/21 10:41:29;;;;;;;9.48;7.05;;;17.40;1.00;;;;;;6136776;23;20583;-90
2023/04/21 10:43:59;;;;;;;9.23;7.53;;;17.60;1.00;;;;;;6181436;23;20177;-90
2023/04/21 10:46:46;;;;;;;8.95;6.80;;;17.70;1.00;;;;;;6180796;23;20169;-89
2023/04/21 10:49:21;;;;;;;10.15;6.97;;;17.90;1.00;;;;;;6180325;23;20182;-90
2023/04/21 10:51:57;;;;;;;6.90;6.03;;;17.90;1.00;;;;;;6180018;23;20182;-88
2023/04/21 10:54:24;;;;;;;8.32;6.00;;;18.00;1.00;;;;;;6180380;23;20640;-77
2023/04/21 10:56:56;;;;;;;8.52;6.20;;;17.70;1.00;;;;;;6208005;23;20154;-77
2023/04/21 10:59:23;;;;;;;6.70;5.85;;;17.80;1.00;;;;;;6206818;23;20161;-79
2023/04/21 11:01:49;;;;;;;5.78;5.28;;;17.70;1.00;;;;;;6177722;23;20630;-79
2023/04/21 11:04:15;;;;;;;9.85;5.75;;;17.60;1.00;;;;;;6208052;23;20186;-77
2023/04/21 11:06:41;;;;;;;7.65;5.63;;;17.50;1.00;;;;;;6207906;23;20158;-77
2023/04/21 11:09:08;;;;;;;11.07;6.45;;;17.80;1.00;;;;;;6180507;23;20189;-76
2023/04/21 11:11:35;;;;;;;5.93;5.20;;;17.70;1.00;;;;;;6208036;23;20216;-77
2023/04/21 11:14:03;;;;;;;7.15;5.93;;;17.60;1.00;;;;;;6207687;23;20169;-78
2023/04/21 11:16:30;;;;;;;8.57;5.60;;;18.10;1.00;;;;;;6207266;23;20248;-76
2023/04/21 11:18:56;;;;;;;8.38;5.82;;;18.00;1.00;;;;;;6207418;23;20158;-78
2023/04/21 11:21:23;;;;;;;5.93;5.13;;;18.00;1.00;;;;;;6209239;23;20174;-77
2023/04/21 11:23:54;;;;;;;7.00;4.70;;;17.80;1.00;;;;;;6209501;23;20154;-77
2023/04/21 11:26:43;;;;;;;7.25;5.75;;;18.00;1.00;;;;;;6181475;23;20150;-76
2023/04/21 11:29:10;;;;;;;6.97;5.72;;;18.10;1.00;;;;;;6207514;23;20178;-80
2023/04/21 11:31:38;;;;;;;7.88;5.30;;;18.00;1.00;;;;;;6209807;23;20405;-79
2023/04/21 11:34:05;;;;;;;6.72;5.15;;;18.00;1.00;;;;;;6180506;23;20158;-81
2023/04/21 11:36:40;;;;;;;7.80;5.03;;;18.30;1.00;;;;;;6209904;23;20645;-80
2023/04/21 11:39:11;;;;;;;7.55;5.50;;;17.80;1.00;;;;;;6210470;23;20162;-81
2023/04/21 11:41:44;;;;;;;7.38;5.13;;;17.70;1.00;;;;;;6209430;23;20257;-80
2023/04/21 11:44:11;;;;;;;6.40;5.40;;;17.90;1.00;;;;;;6210054;23;20192;-80
2023/04/21 11:46:37;;;;;;;8.82;5.03;;;18.10;1.00;;;;;;6210489;23;20229;-80
2023/04/21 11:49:04;;;;;;;6.88;5.63;;;18.10;1.00;;;;;;6209451;23;20193;-80
2023/04/21 11:51:37;;;;;;;7.97;5.28;;;18.00;1.00;;;;;;6207190;23;20537;-81
2023/04/21 11:54:10;;;;;;;6.45;4.63;;;17.90;1.00;;;;;;6208335;23;20138;-81
2023/04/21 11:56:37;;;;;;;6.03;4.95;;;17.90;1.00;;;;;;6205180;23;20166;-79
2023/04/21 11:59:14;;;;;;;6.35;4.72;;;17.60;1.00;;;;;;6205753;23;20233;-79
2023/04/21 12:01:47;;;;;;;6.60;4.53;;;17.80;1.00;;;;;;6203739;23;20189;-79
2023/04/21 12:04:15;;;;;;;5.82;4.60;;;17.90;1.00;;;;;;6204259;23;20150;-79
2023/04/21 12:06:42;;;;;;;7.00;4.18;;;18.00;1.00;;;;;;6204592;23;20168;-79
2023/04/21 12:09:15;;;;;;;5.75;4.25;;;17.90;1.00;;;;;;6202815;23;20182;-79
2023/04/21 12:11:40;;;;;;;6.03;4.90;;;18.10;1.00;;;;;;6205112;23;20178;-79
2023/04/21 12:14:07;;;;;;;6.97;3.65;;;18.20;1.00;;;;;;6204903;23;20536;-80
2023/04/21 12:16:36;;;;;;;5.13;4.43;;;18.10;1.00;;;;;;6204617;23;20182;-79
2023/04/21 12:19:02;;;;;;;6.88;4.10;;;18.10;1.00;;;;;;6204276;23;20184;-79
2023/04/21 12:21:27;;;;;;;5.22;4.30;;;17.90;1.00;;;;;;6204895;23;20492;-81
2023/04/21 12:23:53;;;;;;;5.78;3.92;;;18.00;1.00;;;;;;6202515;23;20603;-79
2023/04/21 12:26:20;;;;;;;5.72;4.60;;;18.30;1.00;;;;;;6204784;23;20150;-79
2023/04/21 12:28:45;;;;;;;6.28;4.40;;;17.90;1.00;;;;;;6202910;23;20460;-79
2023/04/21 12:31:15;;;;;;;4.40;4.00;;;17.90;1.00;;;;;;6206764;23;20694;-90
2023/04/21 12:33:44;;;;;;;5.50;4.05;;;18.00;1.00;;;;;;6213884;23;20165;-91
2023/04/21 12:36:10;;;;;;;5.57;3.83;;;18.20;1.00;;;;;;6219669;23;20178;-87
2023/04/21 12:38:36;;;;;;;4.30;3.55;;;18.20;1.00;;;;;;6212201;23;20242;-89
2023/04/21 12:41:01;;;;;;;3.50;3.20;;;18.10;1.00;;;;;;6212292;23;20237;-90
2023/04/21 12:43:29;;;;;;;4.43;3.33;;;18.50;1.00;;;;;;6209933;23;20155;-89
2023/04/21 12:45:55;;;;;;;3.65;3.35;;;18.10;1.00;;;;;;6212101;23;20151;-90
2023/04/21 12:48:20;;;;;;;7.90;3.67;;;18.40;1.00;;;;;;6209104;23;20221;-87
2023/04/21 12:50:46;;;;;;;11.45;3.92;;;18.30;1.00;;;;;;6208257;23;20232;-88
2023/04/21 12:53:12;;;;;;;6.10;3.55;;;18.10;1.00;;;;;;6207822;23;20157;-88
2023/04/21 12:55:38;;;;;;;4.13;3.55;;;18.30;1.00;;;;;;6208735;23;20146;-88
2023/04/21 12:58:04;;;;;;;4.35;3.75;;;18.60;1.00;;;;;;6207353;23;20157;-90
2023/04/21 13:00:30;;;;;;;6.45;3.58;;;18.60;1.00;;;;;;6207390;23;20164;-89
2023/04/21 13:02:56;;;;;;;4.65;3.55;;;19.10;1.00;;;;;;6207634;23;20170;-90
2023/04/21 13:05:21;;;;;;;6.55;3.80;;;18.50;1.00;;;;;;6206003;23;20220;-89